sensor_id;sensor_type;location;lat;lon;timestamp;pressure;altitude;pressure_sealevel;temperature;humidity
6899;BME280;3488;42.616;23.350;2022-12-29T00:00:45;62480.56;;;4.66;100.00
6899;BME280;3488;42.616;23.350;2022-12-29T00:03:25;62479.63;;;4.70;100.00
6899;BME280;3488;42.616;23.350;2022-12-29T00:06:02;62481.13;;;4.69;100.00
6899;BME280;3488;42.616;23.350;2022-12-29T00:08:42;62490.81;;;4.73;100.00
6899;BME280;3488;42.616;23.350;2022-12-29T00:11:24;62484.25;;;4.74;100.00
6899;BME280;3488;42.616;23.350;2022-12-29T00:14:07;62487.25;;;4.72;100.00
6899;BME280;3488;42.616;23.350;2022-12-29T00:17:24;62484.16;;;4.69;100.00
6899;BME280;3488;42.616;23.350;2022-12-29T00:20:07;62469.75;;;4.55;100.00
6899;BME280;3488;42.616;23.350;2022-12-29T00:23:01;62462.56;;;4.48;100.00
6899;BME280;3488;42.616;23.350;2022-12-29T00:25:53;62454.25;;;4.38;100.00
6899;BME280;3488;42.616;23.350;2022-12-29T00:28:56;62455.75;;;4.37;100.00
6899;BME280;3488;42.616;23.350;2022-12-29T00:31:42;62444.53;;;4.31;100.00
6899;BME280;3488;42.616;23.350;2022-12-29T00:34:27;62445.53;;;4.29;100.00
6899;BME280;3488;42.616;23.350;2022-12-29T00:37:20;62420.81;;;4.05;100.00
6899;BME280;3488;42.616;23.350;2022-12-29T00:40:08;62442.03;;;4.31;100.00
6899;BME280;3488;42.616;23.350;2022-12-29T00:42:52;62450.81;;;4.42;100.00
6899;BME280;3488;42.616;23.350;2022-12-29T00:45:48;62449.78;;;4.41;100.00
6899;BME280;3488;42.616;23.350;2022-12-29T00:48:26;62464.13;;;4.52;100.00
6899;BME280;3488;42.616;23.350;2022-12-29T00:51:16;62452.75;;;4.39;100.00
6899;BME280;3488;42.616;23.350;2022-12-29T00:53:52;62452.88;;;4.44;100.00
6899;BME280;3488;42.616;23.350;2022-12-29T00:56:33;62461.13;;;4.52;100.00
6899;BME280;3488;42.616;23.350;2022-12-29T00:59:05;62469.25;;;4.55;100.00
6899;BME280;3488;42.616;23.350;2022-12-29T01:01:41;62468.25;;;4.56;100.00
6899;BME280;3488;42.616;23.350;2022-12-29T01:04:16;62466.19;;;4.54;100.00
6899;BME280;3488;42.616;23.350;2022-12-29T01:06:44;62463.16;;;4.54;100.00
6899;BME280;3488;42.616;23.350;2022-12-29T01:09:21;62466.63;;;4.50;100.00
6899;BME280;3488;42.616;23.350;2022-12-29T01:12:11;62463.50;;;4.47;100.00
6899;BME280;3488;42.616;23.350;2022-12-29T01:15:28;62454.88;;;4.43;100.00
6899;BME280;3488;42.616;23.350;2022-12-29T01:18:12;62450.72;;;4.37;100.00
6899;BME280;3488;42.616;23.350;2022-12-29T01:20:43;62446.09;;;4.32;100.00
6899;BME280;3488;42.616;23.350;2022-12-29T01:23:28;62445.06;;;4.31;100.00
6899;BME280;3488;42.616;23.350;2022-12-29T01:26:17;62436.97;;;4.31;100.00
6899;BME280;3488;42.616;23.350;2022-12-29T01:29:08;62438.94;;;4.28;100.00
6899;BME280;3488;42.616;23.350;2022-12-29T01:31:42;62434.81;;;4.24;100.00
6899;BME280;3488;42.616;23.350;2022-12-29T01:34:20;62434.84;;;4.26;100.00
6899;BME280;3488;42.616;23.350;2022-12-29T01:36:59;62439.41;;;4.26;100.00
6899;BME280;3488;42.616;23.350;2022-12-29T01:39:43;62431.72;;;4.21;100.00
6899;BME280;3488;42.616;23.350;2022-12-29T01:42:22;62432.22;;;4.21;100.00
6899;BME280;3488;42.616;23.350;2022-12-29T01:44:58;62446.03;;;4.30;100.00
6899;BME280;3488;42.616;23.350;2022-12-29T01:47:59;62446.59;;;4.33;100.00
6899;BME280;3488;42.616;23.350;2022-12-29T01:50:49;62447.16;;;4.36;100.00
6899;BME280;3488;42.616;23.350;2022-12-29T01:53:25;62452.31;;;4.41;100.00
6899;BME280;3488;42.616;23.350;2022-12-29T01:56:05;62454.31;;;4.40;100.00
6899;BME280;3488;42.616;23.350;2022-12-29T02:00:58;62453.84;;;4.42;100.00
6899;BME280;3488;42.616;23.350;2022-12-29T02:02:03;62455.34;;;4.41;100.00
6899;BME280;3488;42.616;23.350;2022-12-29T02:04:43;62454.81;;;4.41;100.00
6899;BME280;3488;42.616;23.350;2022-12-29T02:10:11;62466.66;;;4.52;100.00
6899;BME280;3488;42.616;23.350;2022-12-29T02:12:53;62448.69;;;4.37;100.00
6899;BME280;3488;42.616;23.350;2022-12-29T02:15:43;62429.03;;;4.13;100.00
6899;BME280;3488;42.616;23.350;2022-12-29T02:18:38;62439.41;;;4.26;100.00
6899;BME280;3488;42.616;23.350;2022-12-29T02:22:28;62449.22;;;4.38;100.00
6899;BME280;3488;42.616;23.350;2022-12-29T02:25:14;62440.03;;;4.31;100.00
6899;BME280;3488;42.616;23.350;2022-12-29T02:31:14;62460.44;;;4.44;100.00
6899;BME280;3488;42.616;23.350;2022-12-29T02:33:55;62472.84;;;4.58;100.00
6899;BME280;3488;42.616;23.350;2022-12-29T02:36:42;62469.19;;;4.52;100.00
6899;BME280;3488;42.616;23.350;2022-12-29T02:39:26;62473.41;;;4.61;100.00
6899;BME280;3488;42.616;23.350;2022-12-29T02:42:05;62485.19;;;4.70;100.00
6899;BME280;3488;42.616;23.350;2022-12-29T02:44:47;62474.53;;;4.67;100.00
6899;BME280;3488;42.616;23.350;2022-12-29T02:47:28;62473.94;;;4.62;100.00
6899;BME280;3488;42.616;23.350;2022-12-29T02:50:08;62474.44;;;4.62;100.00
6899;BME280;3488;42.616;23.350;2022-12-29T02:52:49;62481.63;;;4.69;100.00
6899;BME280;3488;42.616;23.350;2022-12-29T02:55:29;62489.25;;;4.72;100.00
6899;BME280;3488;42.616;23.350;2022-12-29T02:58:17;62484.56;;;4.65;100.00
6899;BME280;3488;42.616;23.350;2022-12-29T03:01:03;62479.00;;;4.64;100.00
6899;BME280;3488;42.616;23.350;2022-12-29T03:03:54;62478.00;;;4.63;100.00
6899;BME280;3488;42.616;23.350;2022-12-29T03:06:35;62490.34;;;4.76;100.00
6899;BME280;3488;42.616;23.350;2022-12-29T03:09:12;62485.75;;;4.73;100.00
6899;BME280;3488;42.616;23.350;2022-12-29T03:11:50;62488.28;;;4.73;100.00
6899;BME280;3488;42.616;23.350;2022-12-29T03:14:54;62477.44;;;4.60;100.00
6899;BME280;3488;42.616;23.350;2022-12-29T03:17:51;62462.66;;;4.53;100.00
6899;BME280;3488;42.616;23.350;2022-12-29T03:20:32;62462.50;;;4.46;100.00
6899;BME280;3488;42.616;23.350;2022-12-29T03:23:11;62426.59;;;4.16;100.00
6899;BME280;3488;42.616;23.350;2022-12-29T03:25:56;62403.91;;;3.91;100.00
6899;BME280;3488;42.616;23.350;2022-12-29T03:28:28;62422.47;;;4.12;100.00
6899;BME280;3488;42.616;23.350;2022-12-29T03:30:58;62403.38;;;3.91;100.00
6899;BME280;3488;42.616;23.350;2022-12-29T03:33:28;62393.09;;;3.81;100.00
6899;BME280;3488;42.616;23.350;2022-12-29T03:36:06;62399.75;;;3.85;100.00
6899;BME280;3488;42.616;23.350;2022-12-29T03:38:53;62379.31;;;3.72;100.00
6899;BME280;3488;42.616;23.350;2022-12-29T03:41:34;62380.75;;;3.69;100.00
6899;BME280;3488;42.616;23.350;2022-12-29T03:44:05;62362.81;;;3.53;100.00
6899;BME280;3488;42.616;23.350;2022-12-29T03:46:36;62369.53;;;3.63;100.00
6899;BME280;3488;42.616;23.350;2022-12-29T03:49:09;62359.72;;;3.50;100.00
6899;BME280;3488;42.616;23.350;2022-12-29T03:51:37;62349.44;;;3.40;100.00
6899;BME280;3488;42.616;23.350;2022-12-29T03:54:07;62338.72;;;3.32;100.00
6899;BME280;3488;42.616;23.350;2022-12-29T03:56:37;62333.47;;;3.22;100.00
6899;BME280;3488;42.616;23.350;2022-12-29T03:59:05;62335.97;;;3.22;100.00
6899;BME280;3488;42.616;23.350;2022-12-29T04:01:35;62327.28;;;3.16;100.00
6899;BME280;3488;42.616;23.350;2022-12-29T04:04:15;62305.75;;;2.98;100.00
6899;BME280;3488;42.616;23.350;2022-12-29T04:06:46;62309.88;;;3.02;100.00
6899;BME280;3488;42.616;23.350;2022-12-29T04:09:27;62295.53;;;2.90;100.00
6899;BME280;3488;42.616;23.350;2022-12-29T04:12:07;62315.50;;;3.07;100.00
6899;BME280;3488;42.616;23.350;2022-12-29T04:14:40;62312.88;;;3.02;100.00
6899;BME280;3488;42.616;23.350;2022-12-29T04:17:08;62297.59;;;2.92;100.00
6899;BME280;3488;42.616;23.350;2022-12-29T04:19:43;62307.81;;;3.00;100.00
6899;BME280;3488;42.616;23.350;2022-12-29T04:22:24;62307.81;;;3.00;100.00
6899;BME280;3488;42.616;23.350;2022-12-29T04:24:54;62303.06;;;2.90;100.00
6899;BME280;3488;42.616;23.350;2022-12-29T04:27:26;62306.22;;;2.96;100.00
6899;BME280;3488;42.616;23.350;2022-12-29T04:29:53;62300.06;;;2.90;100.00
6899;BME280;3488;42.616;23.350;2022-12-29T04:32:26;62294.97;;;2.87;100.00
6899;BME280;3488;42.616;23.350;2022-12-29T04:34:57;62295.88;;;2.83;100.00
6899;BME280;3488;42.616;23.350;2022-12-29T04:37:37;62286.75;;;2.79;100.00
6899;BME280;3488;42.616;23.350;2022-12-29T04:40:09;62299.53;;;2.89;100.00
6899;BME280;3488;42.616;23.350;2022-12-29T04:42:36;62310.84;;;3.00;100.00
6899;BME280;3488;42.616;23.350;2022-12-29T04:45:17;62309.88;;;3.02;100.00
6899;BME280;3488;42.616;23.350;2022-12-29T04:47:56;62324.19;;;3.13;100.00
6899;BME280;3488;42.616;23.350;2022-12-29T04:50:30;62329.91;;;3.21;100.00
6899;BME280;3488;42.616;23.350;2022-12-29T04:53:08;62340.66;;;3.29;100.00
6899;BME280;3488;42.616;23.350;2022-12-29T04:55:38;62353.03;;;3.44;100.00
6899;BME280;3488;42.616;23.350;2022-12-29T04:58:31;62357.69;;;3.48;100.00
6899;BME280;3488;42.616;23.350;2022-12-29T05:01:05;62375.63;;;3.64;100.00
6899;BME280;3488;42.616;23.350;2022-12-29T05:03:40;62372.53;;;3.61;100.00
6899;BME280;3488;42.616;23.350;2022-12-29T05:06:12;62373.00;;;3.59;100.00
6899;BME280;3488;42.616;23.350;2022-12-29T05:08:46;62373.63;;;3.64;100.00
6899;BME280;3488;42.616;23.350;2022-12-29T05:11:19;62386.91;;;3.75;100.00
6899;BME280;3488;42.616;23.350;2022-12-29T05:13:49;62377.69;;;3.66;100.00
6899;BME280;3488;42.616;23.350;2022-12-29T05:16:22;62400.34;;;3.90;100.00
6899;BME280;3488;42.616;23.350;2022-12-29T05:18:52;62400.91;;;3.93;100.00
6899;BME280;3488;42.616;23.350;2022-12-29T05:21:35;62407.03;;;3.97;100.00
6899;BME280;3488;42.616;23.350;2022-12-29T05:24:07;62404.91;;;3.92;100.00
6899;BME280;3488;42.616;23.350;2022-12-29T05:26:45;62405.97;;;3.93;100.00
6899;BME280;3488;42.616;23.350;2022-12-29T05:29:21;62404.97;;;3.95;100.00
6899;BME280;3488;42.616;23.350;2022-12-29T05:31:56;62405.47;;;3.95;100.00
6899;BME280;3488;42.616;23.350;2022-12-29T05:34:56;62414.28;;;4.06;100.00
6899;BME280;3488;42.616;23.350;2022-12-29T05:37:39;62418.31;;;4.05;100.00
6899;BME280;3488;42.616;23.350;2022-12-29T05:40:20;62425.50;;;4.12;100.00
6899;BME280;3488;42.616;23.350;2022-12-29T05:42:51;62431.22;;;4.20;100.00
6899;BME280;3488;42.616;23.350;2022-12-29T05:45:26;62426.47;;;4.11;100.00
6899;BME280;3488;42.616;23.350;2022-12-29T05:48:15;62430.13;;;4.17;100.00
6899;BME280;3488;42.616;23.350;2022-12-29T05:51:03;62428.16;;;4.20;100.00
6899;BME280;3488;42.616;23.350;2022-12-29T05:53:52;62427.56;;;4.14;100.00
6899;BME280;3488;42.616;23.350;2022-12-29T05:56:21;62430.13;;;4.17;100.00
6899;BME280;3488;42.616;23.350;2022-12-29T05:58:55;62431.25;;;4.23;100.00
6899;BME280;3488;42.616;23.350;2022-12-29T06:01:26;62412.13;;;3.99;100.00
6899;BME280;3488;42.616;23.350;2022-12-29T06:03:57;62417.31;;;4.07;100.00
6899;BME280;3488;42.616;23.350;2022-12-29T06:06:35;62427.00;;;4.11;100.00
6899;BME280;3488;42.616;23.350;2022-12-29T06:09:23;62420.94;;;4.10;100.00
6899;BME280;3488;42.616;23.350;2022-12-29T06:12:09;62420.47;;;4.12;100.00
6899;BME280;3488;42.616;23.350;2022-12-29T06:14:46;62435.78;;;4.22;100.00
6899;BME280;3488;42.616;23.350;2022-12-29T06:17:32;62426.59;;;4.16;100.00
6899;BME280;3488;42.616;23.350;2022-12-29T06:19:59;62452.72;;;4.36;100.00
6899;BME280;3488;42.616;23.350;2022-12-29T06:22:26;62460.03;;;4.48;100.00
6899;BME280;3488;42.616;23.350;2022-12-29T06:24:55;62467.25;;;4.55;100.00
6899;BME280;3488;42.616;23.350;2022-12-29T06:27:24;62479.47;;;4.62;100.00
6899;BME280;3488;42.616;23.350;2022-12-29T06:29:51;62473.38;;;4.59;100.00
6899;BME280;3488;42.616;23.350;2022-12-29T06:32:18;62473.97;;;4.64;100.00
6899;BME280;3488;42.616;23.350;2022-12-29T06:34:45;62477.47;;;4.63;100.00
6899;BME280;3488;42.616;23.350;2022-12-29T06:37:12;62478.50;;;4.64;100.00
6899;BME280;3488;42.616;23.350;2022-12-29T06:39:40;62468.25;;;4.56;100.00
6899;BME280;3488;42.616;23.350;2022-12-29T06:42:09;62464.13;;;4.52;100.00
6899;BME280;3488;42.616;23.350;2022-12-29T06:44:37;62480.00;;;4.63;100.00
6899;BME280;3488;42.616;23.350;2022-12-29T06:47:06;62479.06;;;4.67;100.00
6899;BME280;3488;42.616;23.350;2022-12-29T06:49:33;62470.72;;;4.54;100.00
6899;BME280;3488;42.616;23.350;2022-12-29T06:52:00;62448.19;;;4.37;100.00
6899;BME280;3488;42.616;23.350;2022-12-29T06:54:31;62459.50;;;4.48;100.00
6899;BME280;3488;42.616;23.350;2022-12-29T06:57:04;62451.78;;;4.40;100.00
6899;BME280;3488;42.616;23.350;2022-12-29T06:59:41;62443.56;;;4.32;100.00
6899;BME280;3488;42.616;23.350;2022-12-29T07:02:11;62459.00;;;4.47;100.00
6899;BME280;3488;42.616;23.350;2022-12-29T07:04:51;62468.19;;;4.54;100.00
6899;BME280;3488;42.616;23.350;2022-12-29T07:07:32;62460.50;;;4.46;100.00
6899;BME280;3488;42.616;23.350;2022-12-29T07:10:07;62455.44;;;4.46;100.00
6899;BME280;3488;42.616;23.350;2022-12-29T07:12:42;62457.44;;;4.46;100.00
6899;BME280;3488;42.616;23.350;2022-12-29T07:15:21;62480.06;;;4.65;100.00
6899;BME280;3488;42.616;23.350;2022-12-29T07:17:56;62459.97;;;4.46;100.00
6899;BME280;3488;42.616;23.350;2022-12-29T07:20:25;62478.56;;;4.66;100.00
6899;BME280;3488;42.616;23.350;2022-12-29T07:23:02;62496.06;;;4.84;100.00
6899;BME280;3488;42.616;23.350;2022-12-29T07:25:40;62504.84;;;4.95;100.00
6899;BME280;3488;42.616;23.350;2022-12-29T07:28:23;62527.97;;;5.15;100.00
6899;BME280;3488;42.616;23.350;2022-12-29T07:31:14;62518.69;;;5.06;100.00
6899;BME280;3488;42.616;23.350;2022-12-29T07:33:52;62538.16;;;5.20;100.00
6899;BME280;3488;42.616;23.350;2022-12-29T07:36:19;62543.38;;;5.27;100.00
6899;BME280;3488;42.616;23.350;2022-12-29T07:38:54;62552.69;;;5.39;100.00
6899;BME280;3488;42.616;23.350;2022-12-29T07:41:23;62553.25;;;5.42;100.00
6899;BME280;3488;42.616;23.350;2022-12-29T07:43:59;62557.44;;;5.48;100.00
6899;BME280;3488;42.616;23.350;2022-12-29T07:46:35;62549.03;;;5.33;100.00
6899;BME280;3488;42.616;23.350;2022-12-29T07:49:06;62545.91;;;5.27;100.00
6899;BME280;3488;42.616;23.350;2022-12-29T07:51:36;62549.09;;;5.35;100.00
6899;BME280;3488;42.616;23.350;2022-12-29T07:54:15;62534.66;;;5.21;100.00
6899;BME280;3488;42.616;23.350;2022-12-29T07:56:46;62512.94;;;4.95;100.00
6899;BME280;3488;42.616;23.350;2022-12-29T07:59:29;62525.41;;;5.12;100.00
6899;BME280;3488;42.616;23.350;2022-12-29T08:02:01;62494.03;;;4.84;100.00
6899;BME280;3488;42.616;23.350;2022-12-29T08:05:01;62510.44;;;4.95;100.00
6899;BME280;3488;42.616;23.350;2022-12-29T08:07:30;62517.25;;;5.09;100.00
6899;BME280;3488;42.616;23.350;2022-12-29T08:10:03;62530.19;;;5.24;100.00
6899;BME280;3488;42.616;23.350;2022-12-29T08:12:39;62551.56;;;5.33;100.00
6899;BME280;3488;42.616;23.350;2022-12-29T08:15:13;62566.59;;;5.52;100.00
6899;BME280;3488;42.616;23.350;2022-12-29T08:17:48;62560.88;;;5.44;100.00
6899;BME280;3488;42.616;23.350;2022-12-29T08:20:19;62543.41;;;5.30;100.00
6899;BME280;3488;42.616;23.350;2022-12-29T08:22:53;62565.00;;;5.48;100.00
6899;BME280;3488;42.616;23.350;2022-12-29T08:25:24;62581.97;;;5.62;100.00
6899;BME280;3488;42.616;23.350;2022-12-29T08:27:57;62584.06;;;5.67;100.00
6899;BME280;3488;42.616;23.350;2022-12-29T08:30:25;62592.31;;;5.75;100.00
6899;BME280;3488;42.616;23.350;2022-12-29T08:33:02;62597.97;;;5.80;100.00
6899;BME280;3488;42.616;23.350;2022-12-29T08:35:37;62587.13;;;5.67;100.00
6899;BME280;3488;42.616;23.350;2022-12-29T08:38:08;62609.91;;;5.95;100.00
6899;BME280;3488;42.616;23.350;2022-12-29T08:40:39;62611.97;;;5.97;100.00
6899;BME280;3488;42.616;23.350;2022-12-29T08:43:19;62614.50;;;5.97;100.00
6899;BME280;3488;42.616;23.350;2022-12-29T08:45:51;62631.44;;;6.11;100.00
6899;BME280;3488;42.616;23.350;2022-12-29T08:48:25;62621.75;;;6.06;100.00
6899;BME280;3488;42.616;23.350;2022-12-29T08:50:53;62624.34;;;6.09;100.00
6899;BME280;3488;42.616;23.350;2022-12-29T08:53:30;62632.06;;;6.16;100.00
6899;BME280;3488;42.616;23.350;2022-12-29T08:56:00;62611.88;;;5.92;100.00
6899;BME280;3488;42.616;23.350;2022-12-29T08:58:27;62600.50;;;5.80;100.00
6899;BME280;3488;42.616;23.350;2022-12-29T09:01:01;62620.75;;;6.08;100.00
6899;BME280;3488;42.616;23.350;2022-12-29T09:03:59;62608.88;;;5.94;100.00
6899;BME280;3488;42.616;23.350;2022-12-29T09:06:40;62641.28;;;6.23;100.00
6899;BME280;3488;42.616;23.350;2022-12-29T09:09:12;62661.38;;;6.42;100.00
6899;BME280;3488;42.616;23.350;2022-12-29T09:11:42;62665.50;;;6.46;100.00
6899;BME280;3488;42.616;23.350;2022-12-29T09:14:11;62657.84;;;6.41;100.00
6899;BME280;3488;42.616;23.350;2022-12-29T09:16:39;62662.47;;;6.46;100.00
6899;BME280;3488;42.616;23.350;2022-12-29T09:19:21;62681.50;;;6.62;100.00
6899;BME280;3488;42.616;23.350;2022-12-29T09:21:48;62700.66;;;6.85;100.00
6899;BME280;3488;42.616;23.350;2022-12-29T09:24:15;62692.84;;;6.73;100.00
6899;BME280;3488;42.616;23.350;2022-12-29T09:26:42;62702.09;;;6.79;100.00
6899;BME280;3488;42.616;23.350;2022-12-29T09:29:09;62692.38;;;6.75;100.00
6899;BME280;3488;42.616;23.350;2022-12-29T09:31:39;62695.41;;;6.75;100.00
6899;BME280;3488;42.616;23.350;2022-12-29T09:34:09;62663.53;;;6.49;100.00
6899;BME280;3488;42.616;23.350;2022-12-29T09:36:37;62678.44;;;6.61;100.00
6899;BME280;3488;42.616;23.350;2022-12-29T09:39:08;62684.06;;;6.64;100.00
6899;BME280;3488;42.616;23.350;2022-12-29T09:41:41;62703.09;;;6.80;100.00
6899;BME280;3488;42.616;23.350;2022-12-29T09:44:19;62735.09;;;7.12;100.00
6899;BME280;3488;42.616;23.350;2022-12-29T09:46:53;62739.75;;;7.16;100.00
6899;BME280;3488;42.616;23.350;2022-12-29T09:49:27;62748.00;;;7.24;100.00
6899;BME280;3488;42.616;23.350;2022-12-29T09:52:03;62733.59;;;7.13;100.00
6899;BME280;3488;42.616;23.350;2022-12-29T09:54:45;62738.38;;;7.25;100.00
6899;BME280;3488;42.616;23.350;2022-12-29T09:57:29;62764.09;;;7.45;100.00
6899;BME280;3488;42.616;23.350;2022-12-29T10:00:21;62736.72;;;7.18;100.00
6899;BME280;3488;42.616;23.350;2022-12-29T10:03:17;62754.22;;;7.33;100.00
6899;BME280;3488;42.616;23.350;2022-12-29T10:05:53;62731.56;;;7.13;100.00
6899;BME280;3488;42.616;23.350;2022-12-29T10:08:52;62760.41;;;7.39;100.00
6899;BME280;3488;42.616;23.350;2022-12-29T10:11:46;62763.00;;;7.41;100.00
6899;BME280;3488;42.616;23.350;2022-12-29T10:14:54;62783.19;;;7.63;99.81
6899;BME280;3488;42.616;23.350;2022-12-29T10:17:32;62794.00;;;7.74;99.31
6899;BME280;3488;42.616;23.350;2022-12-29T10:20:22;62810.44;;;7.85;98.95
6899;BME280;3488;42.616;23.350;2022-12-29T10:23:14;62839.41;;;8.15;98.46
6899;BME280;3488;42.616;23.350;2022-12-29T10:25:55;62851.81;;;8.28;96.49
6899;BME280;3488;42.616;23.350;2022-12-29T10:28:37;62867.88;;;8.46;94.82
6899;BME280;3488;42.616;23.350;2022-12-29T10:31:14;62874.59;;;8.52;94.43
6899;BME280;3488;42.616;23.350;2022-12-29T10:33:51;62896.78;;;8.74;93.41
6899;BME280;3488;42.616;23.350;2022-12-29T10:36:30;62906.63;;;8.83;91.65
6899;BME280;3488;42.616;23.350;2022-12-29T10:39:10;62933.97;;;9.07;91.08
6899;BME280;3488;42.616;23.350;2022-12-29T10:41:46;62950.47;;;9.21;89.82
6899;BME280;3488;42.616;23.350;2022-12-29T10:44:17;62951.56;;;9.27;89.10
6899;BME280;3488;42.616;23.350;2022-12-29T10:46:57;62960.31;;;9.33;88.58
6899;BME280;3488;42.616;23.350;2022-12-29T10:49:26;62948.41;;;9.21;87.04
6899;BME280;3488;42.616;23.350;2022-12-29T10:52:00;62939.63;;;9.13;88.24
6899;BME280;3488;42.616;23.350;2022-12-29T10:54:38;62948.53;;;9.26;88.48
6899;BME280;3488;42.616;23.350;2022-12-29T10:57:24;62932.50;;;9.11;86.85
6899;BME280;3488;42.616;23.350;2022-12-29T10:59:52;62907.09;;;8.81;88.83
6899;BME280;3488;42.616;23.350;2022-12-29T11:02:45;62908.13;;;8.82;89.51
6899;BME280;3488;42.616;23.350;2022-12-29T11:05:24;62902.44;;;8.77;89.81
6899;BME280;3488;42.616;23.350;2022-12-29T11:07:58;62924.69;;;9.01;89.58
6899;BME280;3488;42.616;23.350;2022-12-29T11:10:36;62946.94;;;9.22;88.49
6899;BME280;3488;42.616;23.350;2022-12-29T11:13:14;62950.53;;;9.26;87.30
6899;BME280;3488;42.616;23.350;2022-12-29T11:15:44;62963.94;;;9.37;87.17
6899;BME280;3488;42.616;23.350;2022-12-29T11:18:20;62973.28;;;9.48;87.08
6899;BME280;3488;42.616;23.350;2022-12-29T11:20:48;62971.22;;;9.46;86.69
6899;BME280;3488;42.616;23.350;2022-12-29T11:23:29;62970.66;;;9.43;86.58
6899;BME280;3488;42.616;23.350;2022-12-29T11:26:11;62983.13;;;9.58;86.04
6899;BME280;3488;42.616;23.350;2022-12-29T11:28:42;62968.13;;;9.43;85.33
6899;BME280;3488;42.616;23.350;2022-12-29T11:31:18;62975.81;;;9.48;85.15
6899;BME280;3488;42.616;23.350;2022-12-29T11:33:48;62971.75;;;9.47;84.44
6899;BME280;3488;42.616;23.350;2022-12-29T11:36:16;62956.66;;;9.27;86.20
6899;BME280;3488;42.616;23.350;2022-12-29T11:38:47;62962.91;;;9.35;86.05
6899;BME280;3488;42.616;23.350;2022-12-29T11:41:21;62982.53;;;9.55;84.90
6899;BME280;3488;42.616;23.350;2022-12-29T11:43:51;62962.41;;;9.35;85.47
6899;BME280;3488;42.616;23.350;2022-12-29T11:46:24;62962.88;;;9.33;85.61
6899;BME280;3488;42.616;23.350;2022-12-29T11:49:02;62968.06;;;9.41;85.81
6899;BME280;3488;42.616;23.350;2022-12-29T11:51:37;62976.28;;;9.46;85.46
6899;BME280;3488;42.616;23.350;2022-12-29T11:54:06;62957.25;;;9.32;85.00
6899;BME280;3488;42.616;23.350;2022-12-29T11:56:39;62971.22;;;9.46;85.28
6899;BME280;3488;42.616;23.350;2022-12-29T11:59:41;62971.66;;;9.42;85.93
6899;BME280;3488;42.616;23.350;2022-12-29T12:02:35;62978.94;;;9.51;85.94
6899;BME280;3488;42.616;23.350;2022-12-29T12:05:10;62969.72;;;9.47;85.58
6899;BME280;3488;42.616;23.350;2022-12-29T12:07:42;63001.69;;;9.73;85.07
6899;BME280;3488;42.616;23.350;2022-12-29T12:10:19;62985.66;;;9.58;83.84
6899;BME280;3488;42.616;23.350;2022-12-29T12:12:59;62990.25;;;9.60;84.54
6899;BME280;3488;42.616;23.350;2022-12-29T12:15:36;62975.91;;;9.53;84.59
6899;BME280;3488;42.616;23.350;2022-12-29T12:18:09;62986.13;;;9.56;84.35
6899;BME280;3488;42.616;23.350;2022-12-29T12:20:46;62994.47;;;9.69;83.88
6899;BME280;3488;42.616;23.350;2022-12-29T12:23:30;63001.69;;;9.73;83.19
6899;BME280;3488;42.616;23.350;2022-12-29T12:26:13;62980.97;;;9.51;84.11
6899;BME280;3488;42.616;23.350;2022-12-29T12:28:52;62998.09;;;9.72;84.27
6899;BME280;3488;42.616;23.350;2022-12-29T12:31:56;63018.22;;;9.89;82.39
6899;BME280;3488;42.616;23.350;2022-12-29T12:34:39;63032.72;;;10.03;82.60
6899;BME280;3488;42.616;23.350;2022-12-29T12:37:23;63044.59;;;10.12;81.95
6899;BME280;3488;42.616;23.350;2022-12-29T12:42:58;62980.00;;;9.55;81.97
6899;BME280;3488;42.616;23.350;2022-12-29T12:45:49;62977.84;;;9.48;84.37
6899;BME280;3488;42.616;23.350;2022-12-29T12:48:36;62969.66;;;9.45;86.26
6899;BME280;3488;42.616;23.350;2022-12-29T12:51:15;62987.25;;;9.62;86.16
6899;BME280;3488;42.616;23.350;2022-12-29T12:53:54;62997.09;;;9.74;85.82
6899;BME280;3488;42.616;23.350;2022-12-29T12:56:43;63018.28;;;9.92;84.00
6899;BME280;3488;42.616;23.350;2022-12-29T12:59:21;63017.19;;;9.88;82.82
6899;BME280;3488;42.616;23.350;2022-12-29T13:02:00;63023.41;;;9.94;82.32
6899;BME280;3488;42.616;23.350;2022-12-29T13:04:56;63022.41;;;9.96;81.87
6899;BME280;3488;42.616;23.350;2022-12-29T13:07:32;62986.69;;;9.59;84.04
6899;BME280;3488;42.616;23.350;2022-12-29T13:10:19;63001.16;;;9.73;83.85
6899;BME280;3488;42.616;23.350;2022-12-29T13:12:53;63003.28;;;9.77;83.97
6899;BME280;3488;42.616;23.350;2022-12-29T13:15:39;63011.06;;;9.87;83.78
6899;BME280;3488;42.616;23.350;2022-12-29T13:18:22;63020.28;;;9.91;83.44
6899;BME280;3488;42.616;23.350;2022-12-29T13:21:02;63012.06;;;9.86;82.86
6899;BME280;3488;42.616;23.350;2022-12-29T13:23:37;63015.66;;;9.87;83.01
6899;BME280;3488;42.616;23.350;2022-12-29T13:26:12;63014.56;;;9.83;82.58
6899;BME280;3488;42.616;23.350;2022-12-29T13:28:50;63001.72;;;9.76;84.31
6899;BME280;3488;42.616;23.350;2022-12-29T13:31:30;62994.00;;;9.71;84.84
6899;BME280;3488;42.616;23.350;2022-12-29T13:34:01;62998.63;;;9.73;84.62
6899;BME280;3488;42.616;23.350;2022-12-29T13:36:37;62995.00;;;9.69;84.86
6899;BME280;3488;42.616;23.350;2022-12-29T13:39:12;62996.50;;;9.68;85.41
6899;BME280;3488;42.616;23.350;2022-12-29T13:41:49;62988.75;;;9.61;86.18
6899;BME280;3488;42.616;23.350;2022-12-29T13:44:20;62983.06;;;9.55;86.47
6899;BME280;3488;42.616;23.350;2022-12-29T13:46:51;62963.41;;;9.36;87.41
6899;BME280;3488;42.616;23.350;2022-12-29T13:49:22;62942.75;;;9.16;88.29
6899;BME280;3488;42.616;23.350;2022-12-29T13:52:09;62930.91;;;9.07;89.76
6899;BME280;3488;42.616;23.350;2022-12-29T13:54:45;62915.34;;;8.89;90.79
6899;BME280;3488;42.616;23.350;2022-12-29T13:57:37;62917.44;;;8.91;92.50
6899;BME280;3488;42.616;23.350;2022-12-29T14:00:13;62920.06;;;8.96;91.87
6899;BME280;3488;42.616;23.350;2022-12-29T14:03:19;62908.63;;;8.83;92.02
6899;BME280;3488;42.616;23.350;2022-12-29T14:06:12;62906.66;;;8.86;92.29
6899;BME280;3488;42.616;23.350;2022-12-29T14:08:43;62905.56;;;8.82;91.96
6899;BME280;3488;42.616;23.350;2022-12-29T14:11:15;62900.94;;;8.78;92.88
6899;BME280;3488;42.616;23.350;2022-12-29T14:13:45;62902.91;;;8.75;93.33
6899;BME280;3488;42.616;23.350;2022-12-29T14:16:27;62878.81;;;8.61;94.29
6899;BME280;3488;42.616;23.350;2022-12-29T14:18:57;62877.63;;;8.53;94.61
6899;BME280;3488;42.616;23.350;2022-12-29T14:21:33;62812.03;;;7.89;99.08
6899;BME280;3488;42.616;23.350;2022-12-29T14:27:44;62802.78;;;7.82;100.00